sensor_id;sensor_type;location;lat;lon;timestamp;P1;durP1;ratioP1;P2;durP2;ratioP2
7939;SDS011;4015;48.888;9.226;2023-02-28T00:02:16;2.87;;;2.43;;
7939;SDS011;4015;48.888;9.226;2023-02-28T00:04:42;3.20;;;2.50;;
7939;SDS011;4015;48.888;9.226;2023-02-28T00:07:08;5.10;;;3.23;;
7939;SDS011;4015;48.888;9.226;2023-02-28T00:09:34;3.97;;;2.80;;
7939;SDS011;4015;48.888;9.226;2023-02-28T00:11:59;3.80;;;3.03;;
7939;SDS011;4015;48.888;9.226;2023-02-28T00:14:25;5.03;;;2.90;;
7939;SDS011;4015;48.888;9.226;2023-02-28T00:16:50;3.33;;;2.37;;
7939;SDS011;4015;48.888;9.226;2023-02-28T00:19:15;3.40;;;2.67;;
7939;SDS011;4015;48.888;9.226;2023-02-28T00:21:41;2.87;;;2.60;;
7939;SDS011;4015;48.888;9.226;2023-02-28T00:24:07;3.10;;;2.80;;
7939;SDS011;4015;48.888;9.226;2023-02-28T00:26:33;4.23;;;2.80;;
7939;SDS011;4015;48.888;9.226;2023-02-28T00:28:58;4.47;;;3.10;;
7939;SDS011;4015;48.888;9.226;2023-02-28T00:31:23;4.30;;;3.10;;
7939;SDS011;4015;48.888;9.226;2023-02-28T00:33:49;3.53;;;3.10;;
7939;SDS011;4015;48.888;9.226;2023-02-28T00:36:15;3.47;;;3.17;;
7939;SDS011;4015;48.888;9.226;2023-02-28T00:38:41;3.23;;;2.93;;
7939;SDS011;4015;48.888;9.226;2023-02-28T00:41:06;4.80;;;3.20;;
7939;SDS011;4015;48.888;9.226;2023-02-28T00:43:36;3.80;;;3.37;;
7939;SDS011;4015;48.888;9.226;2023-02-28T00:46:02;5.40;;;3.10;;
7939;SDS011;4015;48.888;9.226;2023-02-28T00:48:28;5.17;;;3.20;;
7939;SDS011;4015;48.888;9.226;2023-02-28T00:50:54;13.33;;;3.73;;
7939;SDS011;4015;48.888;9.226;2023-02-28T00:53:20;3.40;;;3.10;;
7939;SDS011;4015;48.888;9.226;2023-02-28T00:55:46;3.43;;;3.13;;
7939;SDS011;4015;48.888;9.226;2023-02-28T00:58:12;3.50;;;3.20;;
7939;SDS011;4015;48.888;9.226;2023-02-28T01:00:37;3.90;;;3.47;;
7939;SDS011;4015;48.888;9.226;2023-02-28T01:03:03;4.33;;;3.83;;
7939;SDS011;4015;48.888;9.226;2023-02-28T01:05:28;6.13;;;3.53;;
7939;SDS011;4015;48.888;9.226;2023-02-28T01:07:53;4.20;;;3.20;;
7939;SDS011;4015;48.888;9.226;2023-02-28T01:10:19;5.47;;;3.70;;
7939;SDS011;4015;48.888;9.226;2023-02-28T01:12:45;4.57;;;3.40;;
7939;SDS011;4015;48.888;9.226;2023-02-28T01:15:11;3.63;;;3.33;;
7939;SDS011;4015;48.888;9.226;2023-02-28T01:17:36;5.67;;;3.60;;
7939;SDS011;4015;48.888;9.226;2023-02-28T01:20:02;3.93;;;3.53;;
7939;SDS011;4015;48.888;9.226;2023-02-28T01:22:27;4.37;;;3.40;;
7939;SDS011;4015;48.888;9.226;2023-02-28T01:24:53;4.20;;;3.50;;
7939;SDS011;4015;48.888;9.226;2023-02-28T01:27:19;4.00;;;3.27;;
7939;SDS011;4015;48.888;9.226;2023-02-28T01:29:44;3.60;;;3.20;;
7939;SDS011;4015;48.888;9.226;2023-02-28T01:32:10;3.87;;;3.20;;
7939;SDS011;4015;48.888;9.226;2023-02-28T01:34:35;4.10;;;3.70;;
7939;SDS011;4015;48.888;9.226;2023-02-28T01:37:00;4.77;;;3.50;;
7939;SDS011;4015;48.888;9.226;2023-02-28T01:39:26;5.13;;;3.67;;
7939;SDS011;4015;48.888;9.226;2023-02-28T01:41:51;4.13;;;3.50;;
7939;SDS011;4015;48.888;9.226;2023-02-28T01:47:19;4.60;;;3.77;;
7939;SDS011;4015;48.888;9.226;2023-02-28T01:49:45;5.37;;;3.77;;
7939;SDS011;4015;48.888;9.226;2023-02-28T01:52:11;4.67;;;3.87;;
7939;SDS011;4015;48.888;9.226;2023-02-28T01:54:42;4.87;;;4.00;;
7939;SDS011;4015;48.888;9.226;2023-02-28T01:57:11;7.37;;;4.17;;
7939;SDS011;4015;48.888;9.226;2023-02-28T01:59:42;4.77;;;3.97;;
7939;SDS011;4015;48.888;9.226;2023-02-28T02:02:12;4.70;;;3.80;;
7939;SDS011;4015;48.888;9.226;2023-02-28T02:04:40;6.73;;;4.13;;
7939;SDS011;4015;48.888;9.226;2023-02-28T02:07:13;5.33;;;3.60;;
7939;SDS011;4015;48.888;9.226;2023-02-28T02:09:39;6.83;;;3.77;;
7939;SDS011;4015;48.888;9.226;2023-02-28T02:12:07;4.30;;;3.60;;
7939;SDS011;4015;48.888;9.226;2023-02-28T02:15:04;4.33;;;3.93;;
7939;SDS011;4015;48.888;9.226;2023-02-28T02:17:51;4.50;;;4.10;;
7939;SDS011;4015;48.888;9.226;2023-02-28T02:20:27;4.10;;;3.57;;
7939;SDS011;4015;48.888;9.226;2023-02-28T02:42:16;6.53;;;4.23;;
7939;SDS011;4015;48.888;9.226;2023-02-28T02:44:51;5.00;;;4.13;;
7939;SDS011;4015;48.888;9.226;2023-02-28T02:47:26;5.27;;;4.20;;
7939;SDS011;4015;48.888;9.226;2023-02-28T02:49:55;4.57;;;3.80;;
7939;SDS011;4015;48.888;9.226;2023-02-28T02:52:26;4.43;;;3.70;;
7939;SDS011;4015;48.888;9.226;2023-02-28T02:54:57;5.03;;;3.80;;
7939;SDS011;4015;48.888;9.226;2023-02-28T02:57:27;6.37;;;3.77;;
7939;SDS011;4015;48.888;9.226;2023-02-28T02:59:58;5.13;;;4.13;;
7939;SDS011;4015;48.888;9.226;2023-02-28T03:02:26;5.17;;;3.80;;
7939;SDS011;4015;48.888;9.226;2023-02-28T03:04:59;5.13;;;3.83;;
7939;SDS011;4015;48.888;9.226;2023-02-28T03:07:29;6.07;;;4.03;;
7939;SDS011;4015;48.888;9.226;2023-02-28T03:09:55;4.63;;;4.23;;
7939;SDS011;4015;48.888;9.226;2023-02-28T03:12:40;6.23;;;4.43;;
7939;SDS011;4015;48.888;9.226;2023-02-28T03:15:23;4.50;;;4.10;;
7939;SDS011;4015;48.888;9.226;2023-02-28T03:18:04;5.27;;;4.43;;
7939;SDS011;4015;48.888;9.226;2023-02-28T03:23:30;4.73;;;4.30;;
7939;SDS011;4015;48.888;9.226;2023-02-28T03:26:02;6.63;;;4.60;;
7939;SDS011;4015;48.888;9.226;2023-02-28T03:31:13;5.70;;;3.97;;
7939;SDS011;4015;48.888;9.226;2023-02-28T03:33:47;4.87;;;4.23;;
7939;SDS011;4015;48.888;9.226;2023-02-28T03:36:20;7.07;;;4.50;;
7939;SDS011;4015;48.888;9.226;2023-02-28T03:38:59;5.13;;;3.80;;
7939;SDS011;4015;48.888;9.226;2023-02-28T03:41:31;5.03;;;4.17;;
7939;SDS011;4015;48.888;9.226;2023-02-28T03:44:03;4.97;;;3.60;;
7939;SDS011;4015;48.888;9.226;2023-02-28T03:46:33;4.53;;;4.03;;
7939;SDS011;4015;48.888;9.226;2023-02-28T03:49:04;5.40;;;4.30;;
7939;SDS011;4015;48.888;9.226;2023-02-28T03:51:38;4.93;;;4.37;;
7939;SDS011;4015;48.888;9.226;2023-02-28T03:54:08;4.83;;;4.27;;
7939;SDS011;4015;48.888;9.226;2023-02-28T03:56:38;4.83;;;4.27;;
7939;SDS011;4015;48.888;9.226;2023-02-28T03:59:19;5.63;;;4.20;;
7939;SDS011;4015;48.888;9.226;2023-02-28T04:01:51;9.23;;;4.93;;
7939;SDS011;4015;48.888;9.226;2023-02-28T04:04:17;5.43;;;3.90;;
7939;SDS011;4015;48.888;9.226;2023-02-28T04:06:43;5.43;;;4.37;;
7939;SDS011;4015;48.888;9.226;2023-02-28T04:09:10;6.13;;;4.13;;
7939;SDS011;4015;48.888;9.226;2023-02-28T04:11:42;4.83;;;3.77;;
7939;SDS011;4015;48.888;9.226;2023-02-28T04:14:10;5.20;;;4.33;;
7939;SDS011;4015;48.888;9.226;2023-02-28T04:16:37;6.27;;;4.90;;
7939;SDS011;4015;48.888;9.226;2023-02-28T04:19:04;4.70;;;4.03;;
7939;SDS011;4015;48.888;9.226;2023-02-28T04:21:32;6.60;;;4.10;;
7939;SDS011;4015;48.888;9.226;2023-02-28T04:23:57;6.27;;;4.67;;
7939;SDS011;4015;48.888;9.226;2023-02-28T04:26:27;6.23;;;4.33;;
7939;SDS011;4015;48.888;9.226;2023-02-28T04:29:07;5.67;;;4.63;;
7939;SDS011;4015;48.888;9.226;2023-02-28T04:31:33;5.83;;;4.60;;
7939;SDS011;4015;48.888;9.226;2023-02-28T04:33:59;5.93;;;4.73;;
7939;SDS011;4015;48.888;9.226;2023-02-28T04:36:25;4.77;;;4.13;;
7939;SDS011;4015;48.888;9.226;2023-02-28T04:38:51;6.30;;;4.27;;
7939;SDS011;4015;48.888;9.226;2023-02-28T04:41:16;6.40;;;4.60;;
7939;SDS011;4015;48.888;9.226;2023-02-28T04:43:42;4.80;;;4.30;;
7939;SDS011;4015;48.888;9.226;2023-02-28T04:46:07;6.93;;;4.90;;
7939;SDS011;4015;48.888;9.226;2023-02-28T04:48:35;5.20;;;4.43;;
7939;SDS011;4015;48.888;9.226;2023-02-28T04:51:02;5.83;;;5.00;;
7939;SDS011;4015;48.888;9.226;2023-02-28T04:53:33;6.07;;;4.90;;
7939;SDS011;4015;48.888;9.226;2023-02-28T04:55:59;5.97;;;4.63;;
7939;SDS011;4015;48.888;9.226;2023-02-28T04:58:25;5.27;;;4.40;;
7939;SDS011;4015;48.888;9.226;2023-02-28T05:00:51;6.27;;;4.50;;
7939;SDS011;4015;48.888;9.226;2023-02-28T05:03:17;5.90;;;5.10;;
7939;SDS011;4015;48.888;9.226;2023-02-28T05:05:43;4.97;;;4.50;;
7939;SDS011;4015;48.888;9.226;2023-02-28T05:08:08;6.50;;;5.00;;
7939;SDS011;4015;48.888;9.226;2023-02-28T05:10:34;4.47;;;4.07;;
7939;SDS011;4015;48.888;9.226;2023-02-28T05:13:00;6.43;;;4.90;;
7939;SDS011;4015;48.888;9.226;2023-02-28T05:15:25;4.77;;;4.27;;
7939;SDS011;4015;48.888;9.226;2023-02-28T05:17:50;5.70;;;4.93;;
7939;SDS011;4015;48.888;9.226;2023-02-28T05:20:16;5.10;;;4.60;;
7939;SDS011;4015;48.888;9.226;2023-02-28T05:22:42;5.67;;;4.70;;
7939;SDS011;4015;48.888;9.226;2023-02-28T05:25:10;6.30;;;4.77;;
7939;SDS011;4015;48.888;9.226;2023-02-28T05:27:39;6.27;;;5.23;;
7939;SDS011;4015;48.888;9.226;2023-02-28T05:30:05;9.17;;;4.87;;
7939;SDS011;4015;48.888;9.226;2023-02-28T05:32:31;6.47;;;4.87;;
7939;SDS011;4015;48.888;9.226;2023-02-28T05:34:57;8.87;;;5.83;;
7939;SDS011;4015;48.888;9.226;2023-02-28T05:37:22;6.83;;;5.23;;
7939;SDS011;4015;48.888;9.226;2023-02-28T05:39:47;6.40;;;5.67;;
7939;SDS011;4015;48.888;9.226;2023-02-28T05:42:13;5.93;;;4.60;;
7939;SDS011;4015;48.888;9.226;2023-02-28T05:44:38;7.20;;;5.33;;
7939;SDS011;4015;48.888;9.226;2023-02-28T05:47:03;5.83;;;5.17;;
7939;SDS011;4015;48.888;9.226;2023-02-28T05:49:29;5.77;;;4.80;;
7939;SDS011;4015;48.888;9.226;2023-02-28T05:51:54;5.77;;;5.20;;
7939;SDS011;4015;48.888;9.226;2023-02-28T05:54:19;6.57;;;5.33;;
7939;SDS011;4015;48.888;9.226;2023-02-28T05:56:45;7.10;;;5.43;;
7939;SDS011;4015;48.888;9.226;2023-02-28T05:59:13;5.77;;;4.53;;
7939;SDS011;4015;48.888;9.226;2023-02-28T06:01:40;6.13;;;5.43;;
7939;SDS011;4015;48.888;9.226;2023-02-28T06:04:08;5.50;;;4.57;;
7939;SDS011;4015;48.888;9.226;2023-02-28T06:06:35;5.37;;;4.87;;
7939;SDS011;4015;48.888;9.226;2023-02-28T06:09:02;7.60;;;5.27;;
7939;SDS011;4015;48.888;9.226;2023-02-28T06:11:30;7.17;;;5.80;;
7939;SDS011;4015;48.888;9.226;2023-02-28T06:13:57;12.07;;;6.50;;
7939;SDS011;4015;48.888;9.226;2023-02-28T06:16:24;5.17;;;4.67;;
7939;SDS011;4015;48.888;9.226;2023-02-28T06:18:50;9.23;;;5.13;;
7939;SDS011;4015;48.888;9.226;2023-02-28T06:21:17;6.47;;;5.40;;
7939;SDS011;4015;48.888;9.226;2023-02-28T06:23:42;5.90;;;5.30;;
7939;SDS011;4015;48.888;9.226;2023-02-28T06:26:08;8.03;;;6.13;;
7939;SDS011;4015;48.888;9.226;2023-02-28T06:28:34;7.43;;;5.70;;
7939;SDS011;4015;48.888;9.226;2023-02-28T06:30:59;9.63;;;5.63;;
7939;SDS011;4015;48.888;9.226;2023-02-28T06:33:24;5.37;;;4.83;;
7939;SDS011;4015;48.888;9.226;2023-02-28T06:35:50;8.70;;;5.33;;
7939;SDS011;4015;48.888;9.226;2023-02-28T06:38:16;6.23;;;5.63;;
7939;SDS011;4015;48.888;9.226;2023-02-28T06:40:43;7.40;;;5.73;;
7939;SDS011;4015;48.888;9.226;2023-02-28T06:43:09;8.40;;;5.03;;
7939;SDS011;4015;48.888;9.226;2023-02-28T06:45:41;6.50;;;5.77;;
7939;SDS011;4015;48.888;9.226;2023-02-28T06:48:07;7.23;;;6.17;;
7939;SDS011;4015;48.888;9.226;2023-02-28T06:50:32;9.90;;;6.20;;
7939;SDS011;4015;48.888;9.226;2023-02-28T06:52:58;8.10;;;6.43;;
7939;SDS011;4015;48.888;9.226;2023-02-28T06:55:23;8.67;;;6.10;;
7939;SDS011;4015;48.888;9.226;2023-02-28T06:57:48;8.53;;;6.30;;
7939;SDS011;4015;48.888;9.226;2023-02-28T07:00:15;7.10;;;5.30;;
7939;SDS011;4015;48.888;9.226;2023-02-28T07:02:41;6.57;;;5.70;;
7939;SDS011;4015;48.888;9.226;2023-02-28T07:05:06;7.87;;;6.27;;
7939;SDS011;4015;48.888;9.226;2023-02-28T07:07:32;7.77;;;6.33;;
7939;SDS011;4015;48.888;9.226;2023-02-28T07:09:58;6.83;;;6.10;;
7939;SDS011;4015;48.888;9.226;2023-02-28T07:12:23;7.70;;;6.13;;
7939;SDS011;4015;48.888;9.226;2023-02-28T07:14:49;10.70;;;6.53;;
7939;SDS011;4015;48.888;9.226;2023-02-28T07:17:14;9.83;;;6.20;;
7939;SDS011;4015;48.888;9.226;2023-02-28T07:19:39;7.27;;;6.27;;
7939;SDS011;4015;48.888;9.226;2023-02-28T07:22:05;7.73;;;6.63;;
7939;SDS011;4015;48.888;9.226;2023-02-28T07:24:31;7.97;;;5.73;;
7939;SDS011;4015;48.888;9.226;2023-02-28T07:26:56;5.80;;;5.20;;
7939;SDS011;4015;48.888;9.226;2023-02-28T07:29:22;9.80;;;6.27;;
7939;SDS011;4015;48.888;9.226;2023-02-28T07:31:47;9.80;;;6.27;;
7939;SDS011;4015;48.888;9.226;2023-02-28T07:34:15;8.30;;;6.53;;
7939;SDS011;4015;48.888;9.226;2023-02-28T07:36:40;8.37;;;6.17;;
7939;SDS011;4015;48.888;9.226;2023-02-28T07:39:05;9.40;;;6.63;;
7939;SDS011;4015;48.888;9.226;2023-02-28T07:41:31;6.87;;;6.00;;
7939;SDS011;4015;48.888;9.226;2023-02-28T07:43:59;8.17;;;6.43;;
7939;SDS011;4015;48.888;9.226;2023-02-28T07:46:24;8.50;;;6.70;;
7939;SDS011;4015;48.888;9.226;2023-02-28T07:48:50;8.87;;;7.23;;
7939;SDS011;4015;48.888;9.226;2023-02-28T07:51:16;9.23;;;5.93;;
7939;SDS011;4015;48.888;9.226;2023-02-28T07:53:41;8.07;;;7.37;;
7939;SDS011;4015;48.888;9.226;2023-02-28T07:56:07;8.33;;;7.20;;
7939;SDS011;4015;48.888;9.226;2023-02-28T07:58:32;14.20;;;9.27;;
7939;SDS011;4015;48.888;9.226;2023-02-28T08:01:04;8.37;;;6.33;;
7939;SDS011;4015;48.888;9.226;2023-02-28T08:03:34;8.27;;;6.43;;
7939;SDS011;4015;48.888;9.226;2023-02-28T08:06:00;9.50;;;7.57;;
7939;SDS011;4015;48.888;9.226;2023-02-28T08:08:27;8.90;;;6.93;;
7939;SDS011;4015;48.888;9.226;2023-02-28T08:10:57;8.33;;;6.60;;
7939;SDS011;4015;48.888;9.226;2023-02-28T08:13:24;7.47;;;6.70;;
7939;SDS011;4015;48.888;9.226;2023-02-28T08:15:50;8.10;;;6.57;;
7939;SDS011;4015;48.888;9.226;2023-02-28T08:18:15;5.87;;;5.27;;
7939;SDS011;4015;48.888;9.226;2023-02-28T08:20:40;6.87;;;5.63;;
7939;SDS011;4015;48.888;9.226;2023-02-28T08:23:06;12.77;;;9.43;;
7939;SDS011;4015;48.888;9.226;2023-02-28T08:25:31;11.17;;;7.73;;
7939;SDS011;4015;48.888;9.226;2023-02-28T08:27:56;7.67;;;6.43;;
7939;SDS011;4015;48.888;9.226;2023-02-28T08:30:21;10.30;;;7.17;;
7939;SDS011;4015;48.888;9.226;2023-02-28T08:32:47;7.13;;;6.30;;
7939;SDS011;4015;48.888;9.226;2023-02-28T08:35:12;10.93;;;7.53;;
7939;SDS011;4015;48.888;9.226;2023-02-28T08:37:38;8.10;;;6.67;;
7939;SDS011;4015;48.888;9.226;2023-02-28T08:40:03;8.10;;;6.90;;
7939;SDS011;4015;48.888;9.226;2023-02-28T08:42:29;9.00;;;7.37;;
7939;SDS011;4015;48.888;9.226;2023-02-28T08:44:55;8.07;;;6.63;;
7939;SDS011;4015;48.888;9.226;2023-02-28T08:47:21;8.73;;;6.90;;
7939;SDS011;4015;48.888;9.226;2023-02-28T08:49:46;9.37;;;6.97;;
7939;SDS011;4015;48.888;9.226;2023-02-28T08:52:12;8.40;;;6.67;;
7939;SDS011;4015;48.888;9.226;2023-02-28T08:54:37;7.60;;;6.70;;
7939;SDS011;4015;48.888;9.226;2023-02-28T08:57:02;8.27;;;7.23;;
7939;SDS011;4015;48.888;9.226;2023-02-28T08:59:28;9.37;;;7.00;;
7939;SDS011;4015;48.888;9.226;2023-02-28T09:01:54;8.00;;;6.77;;
7939;SDS011;4015;48.888;9.226;2023-02-28T09:04:19;9.43;;;7.53;;
7939;SDS011;4015;48.888;9.226;2023-02-28T09:06:44;8.77;;;7.07;;
7939;SDS011;4015;48.888;9.226;2023-02-28T09:09:10;9.77;;;7.77;;
7939;SDS011;4015;48.888;9.226;2023-02-28T09:11:35;9.70;;;7.03;;
7939;SDS011;4015;48.888;9.226;2023-02-28T09:14:01;7.40;;;6.60;;
7939;SDS011;4015;48.888;9.226;2023-02-28T09:16:28;11.20;;;7.80;;
7939;SDS011;4015;48.888;9.226;2023-02-28T09:18:54;8.50;;;6.97;;
7939;SDS011;4015;48.888;9.226;2023-02-28T09:21:19;8.63;;;7.70;;
7939;SDS011;4015;48.888;9.226;2023-02-28T09:23:45;9.80;;;7.33;;
7939;SDS011;4015;48.888;9.226;2023-02-28T09:26:16;8.33;;;6.90;;
7939;SDS011;4015;48.888;9.226;2023-02-28T09:28:52;8.07;;;7.27;;
7939;SDS011;4015;48.888;9.226;2023-02-28T09:31:22;10.37;;;7.57;;
7939;SDS011;4015;48.888;9.226;2023-02-28T09:33:50;9.60;;;7.23;;
7939;SDS011;4015;48.888;9.226;2023-02-28T09:36:17;8.50;;;7.20;;
7939;SDS011;4015;48.888;9.226;2023-02-28T09:38:42;9.37;;;7.20;;
7939;SDS011;4015;48.888;9.226;2023-02-28T09:41:10;8.27;;;7.27;;
7939;SDS011;4015;48.888;9.226;2023-02-28T09:43:53;8.27;;;7.40;;
7939;SDS011;4015;48.888;9.226;2023-02-28T09:49:00;7.73;;;6.63;;
7939;SDS011;4015;48.888;9.226;2023-02-28T09:54:17;11.13;;;7.47;;
7939;SDS011;4015;48.888;9.226;2023-02-28T09:56:47;8.40;;;7.30;;
7939;SDS011;4015;48.888;9.226;2023-02-28T09:59:31;8.47;;;7.57;;
7939;SDS011;4015;48.888;9.226;2023-02-28T10:05:22;7.73;;;6.40;;
7939;SDS011;4015;48.888;9.226;2023-02-28T10:10:32;8.27;;;7.10;;
7939;SDS011;4015;48.888;9.226;2023-02-28T10:13:11;8.37;;;6.63;;
7939;SDS011;4015;48.888;9.226;2023-02-28T10:15:58;8.60;;;7.23;;
7939;SDS011;4015;48.888;9.226;2023-02-28T10:18:27;8.03;;;6.87;;
7939;SDS011;4015;48.888;9.226;2023-02-28T10:21:00;8.50;;;7.50;;
7939;SDS011;4015;48.888;9.226;2023-02-28T10:23:31;9.97;;;7.67;;
7939;SDS011;4015;48.888;9.226;2023-02-28T10:26:01;8.73;;;7.23;;
7939;SDS011;4015;48.888;9.226;2023-02-28T10:28:36;9.03;;;7.37;;
7939;SDS011;4015;48.888;9.226;2023-02-28T10:31:01;13.97;;;7.90;;
7939;SDS011;4015;48.888;9.226;2023-02-28T10:33:32;10.83;;;7.60;;
7939;SDS011;4015;48.888;9.226;2023-02-28T10:35:59;7.90;;;7.10;;
7939;SDS011;4015;48.888;9.226;2023-02-28T10:38:38;11.37;;;8.07;;
7939;SDS011;4015;48.888;9.226;2023-02-28T10:41:06;7.60;;;6.83;;
7939;SDS011;4015;48.888;9.226;2023-02-28T10:43:33;13.70;;;8.20;;
7939;SDS011;4015;48.888;9.226;2023-02-28T10:46:11;9.20;;;8.30;;
7939;SDS011;4015;48.888;9.226;2023-02-28T10:51:10;8.57;;;7.67;;
7939;SDS011;4015;48.888;9.226;2023-02-28T10:56:18;9.00;;;7.47;;
7939;SDS011;4015;48.888;9.226;2023-02-28T11:03:55;10.90;;;6.80;;
7939;SDS011;4015;48.888;9.226;2023-02-28T11:06:23;8.17;;;7.03;;
7939;SDS011;4015;48.888;9.226;2023-02-28T11:08:52;9.67;;;6.93;;
7939;SDS011;4015;48.888;9.226;2023-02-28T11:11:20;6.97;;;6.27;;
7939;SDS011;4015;48.888;9.226;2023-02-28T11:13:48;7.30;;;6.60;;
7939;SDS011;4015;48.888;9.226;2023-02-28T11:16:17;6.60;;;6.00;;
7939;SDS011;4015;48.888;9.226;2023-02-28T11:18:55;7.10;;;6.40;;
7939;SDS011;4015;48.888;9.226;2023-02-28T11:21:23;7.40;;;6.60;;
7939;SDS011;4015;48.888;9.226;2023-02-28T11:23:57;8.10;;;6.20;;
7939;SDS011;4015;48.888;9.226;2023-02-28T11:26:41;9.03;;;7.23;;
7939;SDS011;4015;48.888;9.226;2023-02-28T11:29:19;7.57;;;6.50;;
7939;SDS011;4015;48.888;9.226;2023-02-28T11:32:18;7.63;;;6.83;;
7939;SDS011;4015;48.888;9.226;2023-02-28T11:35:00;8.67;;;6.90;;
7939;SDS011;4015;48.888;9.226;2023-02-28T11:37:26;6.80;;;6.13;;
7939;SDS011;4015;48.888;9.226;2023-02-28T11:39:53;8.17;;;7.27;;
7939;SDS011;4015;48.888;9.226;2023-02-28T11:51:04;7.25;;;6.30;;
7939;SDS011;4015;48.888;9.226;2023-02-28T11:56:26;7.82;;;6.75;;
7939;SDS011;4015;48.888;9.226;2023-02-28T12:06:40;6.22;;;5.63;;
7939;SDS011;4015;48.888;9.226;2023-02-28T12:12:07;7.05;;;6.05;;
7939;SDS011;4015;48.888;9.226;2023-02-28T12:17:43;7.10;;;6.40;;
7939;SDS011;4015;48.888;9.226;2023-02-28T12:23:41;6.75;;;6.15;;
7939;SDS011;4015;48.888;9.226;2023-02-28T12:34:55;9.80;;;5.82;;
7939;SDS011;4015;48.888;9.226;2023-02-28T12:37:34;6.97;;;6.20;;
7939;SDS011;4015;48.888;9.226;2023-02-28T12:40:06;7.80;;;6.18;;
7939;SDS011;4015;48.888;9.226;2023-02-28T12:42:53;9.30;;;7.40;;
7939;SDS011;4015;48.888;9.226;2023-02-28T12:45:24;6.45;;;5.85;;
7939;SDS011;4015;48.888;9.226;2023-02-28T12:47:54;6.95;;;6.30;;
7939;SDS011;4015;48.888;9.226;2023-02-28T12:50:23;7.03;;;6.32;;
7939;SDS011;4015;48.888;9.226;2023-02-28T12:58:24;7.18;;;6.47;;
7939;SDS011;4015;48.888;9.226;2023-02-28T13:09:24;9.15;;;6.80;;
7939;SDS011;4015;48.888;9.226;2023-02-28T13:11:51;7.50;;;6.28;;
7939;SDS011;4015;48.888;9.226;2023-02-28T13:14:23;7.07;;;6.32;;
7939;SDS011;4015;48.888;9.226;2023-02-28T13:19:34;8.40;;;6.07;;
7939;SDS011;4015;48.888;9.226;2023-02-28T13:22:02;7.47;;;6.70;;
7939;SDS011;4015;48.888;9.226;2023-02-28T13:24:36;6.97;;;6.38;;
7939;SDS011;4015;48.888;9.226;2023-02-28T13:29:31;8.68;;;6.40;;
7939;SDS011;4015;48.888;9.226;2023-02-28T13:34:30;16.25;;;14.52;;
7939;SDS011;4015;48.888;9.226;2023-02-28T13:47:34;7.05;;;6.20;;
7939;SDS011;4015;48.888;9.226;2023-02-28T14:06:35;8.10;;;6.40;;
7939;SDS011;4015;48.888;9.226;2023-02-28T14:09:06;7.82;;;6.65;;
7939;SDS011;4015;48.888;9.226;2023-02-28T14:11:52;7.20;;;6.60;;
7939;SDS011;4015;48.888;9.226;2023-02-28T14:17:02;6.88;;;6.28;;
7939;SDS011;4015;48.888;9.226;2023-02-28T14:19:30;8.30;;;7.03;;
7939;SDS011;4015;48.888;9.226;2023-02-28T14:22:04;7.45;;;6.72;;
7939;SDS011;4015;48.888;9.226;2023-02-28T14:24:57;8.10;;;6.68;;
7939;SDS011;4015;48.888;9.226;2023-02-28T14:36:12;6.63;;;5.97;;
7939;SDS011;4015;48.888;9.226;2023-02-28T14:38:46;8.23;;;6.70;;
7939;SDS011;4015;48.888;9.226;2023-02-28T14:41:18;6.63;;;5.93;;
7939;SDS011;4015;48.888;9.226;2023-02-28T14:43:55;8.27;;;6.97;;
7939;SDS011;4015;48.888;9.226;2023-02-28T14:46:23;7.80;;;6.83;;
7939;SDS011;4015;48.888;9.226;2023-02-28T14:48:53;9.18;;;6.60;;
7939;SDS011;4015;48.888;9.226;2023-02-28T14:51:20;7.73;;;6.67;;
7939;SDS011;4015;48.888;9.226;2023-02-28T14:53:48;7.83;;;7.03;;
7939;SDS011;4015;48.888;9.226;2023-02-28T15:01:51;7.77;;;6.97;;
7939;SDS011;4015;48.888;9.226;2023-02-28T15:04:22;8.07;;;6.93;;
7939;SDS011;4015;48.888;9.226;2023-02-28T15:09:34;7.63;;;6.93;;
7939;SDS011;4015;48.888;9.226;2023-02-28T15:11:59;8.30;;;7.33;;
7939;SDS011;4015;48.888;9.226;2023-02-28T15:14:25;9.17;;;7.57;;
7939;SDS011;4015;48.888;9.226;2023-02-28T15:16:55;8.93;;;7.17;;
7939;SDS011;4015;48.888;9.226;2023-02-28T15:19:29;8.03;;;7.30;;
7939;SDS011;4015;48.888;9.226;2023-02-28T15:24:38;8.07;;;7.03;;
7939;SDS011;4015;48.888;9.226;2023-02-28T15:27:07;9.97;;;7.43;;
7939;SDS011;4015;48.888;9.226;2023-02-28T15:29:44;8.77;;;7.83;;
7939;SDS011;4015;48.888;9.226;2023-02-28T15:34:53;9.07;;;8.00;;
7939;SDS011;4015;48.888;9.226;2023-02-28T15:39:54;7.70;;;6.90;;
7939;SDS011;4015;48.888;9.226;2023-02-28T15:42:22;9.13;;;7.37;;
7939;SDS011;4015;48.888;9.226;2023-02-28T15:44:52;10.40;;;8.07;;
7939;SDS011;4015;48.888;9.226;2023-02-28T15:47:19;9.27;;;7.60;;
7939;SDS011;4015;48.888;9.226;2023-02-28T15:49:50;7.73;;;6.93;;
7939;SDS011;4015;48.888;9.226;2023-02-28T15:52:20;8.27;;;7.47;;
7939;SDS011;4015;48.888;9.226;2023-02-28T15:54:49;7.47;;;6.77;;
7939;SDS011;4015;48.888;9.226;2023-02-28T15:57:22;10.13;;;7.83;;
7939;SDS011;4015;48.888;9.226;2023-02-28T15:59:51;9.80;;;8.10;;
7939;SDS011;4015;48.888;9.226;2023-02-28T16:02:21;10.07;;;7.80;;
7939;SDS011;4015;48.888;9.226;2023-02-28T16:07:32;9.60;;;7.70;;
7939;SDS011;4015;48.888;9.226;2023-02-28T16:09:59;8.13;;;7.33;;
7939;SDS011;4015;48.888;9.226;2023-02-28T16:12:26;11.83;;;7.33;;
7939;SDS011;4015;48.888;9.226;2023-02-28T16:14:57;11.43;;;8.23;;
7939;SDS011;4015;48.888;9.226;2023-02-28T16:17:27;11.20;;;8.13;;
7939;SDS011;4015;48.888;9.226;2023-02-28T16:19:54;9.83;;;8.20;;
7939;SDS011;4015;48.888;9.226;2023-02-28T16:22:21;10.10;;;8.00;;
7939;SDS011;4015;48.888;9.226;2023-02-28T16:24:46;9.10;;;8.17;;
7939;SDS011;4015;48.888;9.226;2023-02-28T16:27:30;13.17;;;8.90;;
7939;SDS011;4015;48.888;9.226;2023-02-28T16:29:58;9.30;;;7.27;;
7939;SDS011;4015;48.888;9.226;2023-02-28T16:32:23;9.13;;;8.00;;
7939;SDS011;4015;48.888;9.226;2023-02-28T16:34:49;9.97;;;8.60;;
7939;SDS011;4015;48.888;9.226;2023-02-28T16:37:15;11.27;;;7.90;;
7939;SDS011;4015;48.888;9.226;2023-02-28T16:39:42;10.00;;;8.10;;
7939;SDS011;4015;48.888;9.226;2023-02-28T16:42:11;9.07;;;7.90;;
7939;SDS011;4015;48.888;9.226;2023-02-28T16:44:43;11.33;;;8.53;;
7939;SDS011;4015;48.888;9.226;2023-02-28T16:47:08;11.77;;;8.90;;
7939;SDS011;4015;48.888;9.226;2023-02-28T16:49:35;11.43;;;9.30;;
7939;SDS011;4015;48.888;9.226;2023-02-28T16:52:01;9.20;;;7.93;;
7939;SDS011;4015;48.888;9.226;2023-02-28T16:54:26;10.93;;;8.10;;
7939;SDS011;4015;48.888;9.226;2023-02-28T16:56:51;9.87;;;7.60;;
7939;SDS011;4015;48.888;9.226;2023-02-28T16:59:18;10.23;;;8.70;;
7939;SDS011;4015;48.888;9.226;2023-02-28T17:01:47;11.00;;;9.00;;
7939;SDS011;4015;48.888;9.226;2023-02-28T17:04:13;10.27;;;8.73;;
7939;SDS011;4015;48.888;9.226;2023-02-28T17:06:39;11.53;;;9.40;;
7939;SDS011;4015;48.888;9.226;2023-02-28T17:09:05;11.27;;;8.83;;
7939;SDS011;4015;48.888;9.226;2023-02-28T17:11:30;21.47;;;16.33;;
7939;SDS011;4015;48.888;9.226;2023-02-28T17:13:55;10.40;;;9.03;;
7939;SDS011;4015;48.888;9.226;2023-02-28T17:18:54;12.83;;;9.57;;
7939;SDS011;4015;48.888;9.226;2023-02-28T17:21:21;11.10;;;8.83;;
7939;SDS011;4015;48.888;9.226;2023-02-28T17:23:47;10.73;;;8.63;;
7939;SDS011;4015;48.888;9.226;2023-02-28T17:26:13;10.80;;;8.43;;
7939;SDS011;4015;48.888;9.226;2023-02-28T17:28:40;9.67;;;8.60;;
7939;SDS011;4015;48.888;9.226;2023-02-28T17:31:05;10.77;;;9.03;;
7939;SDS011;4015;48.888;9.226;2023-02-28T17:33:30;11.33;;;8.73;;
7939;SDS011;4015;48.888;9.226;2023-02-28T17:35:56;10.07;;;8.67;;
7939;SDS011;4015;48.888;9.226;2023-02-28T17:38:21;13.23;;;8.87;;
7939;SDS011;4015;48.888;9.226;2023-02-28T17:40:47;9.60;;;8.47;;
7939;SDS011;4015;48.888;9.226;2023-02-28T17:43:13;12.57;;;9.40;;
7939;SDS011;4015;48.888;9.226;2023-02-28T17:45:39;16.93;;;9.67;;
7939;SDS011;4015;48.888;9.226;2023-02-28T17:48:05;11.80;;;8.83;;
7939;SDS011;4015;48.888;9.226;2023-02-28T17:50:31;13.10;;;9.97;;
7939;SDS011;4015;48.888;9.226;2023-02-28T17:52:56;11.60;;;9.13;;
7939;SDS011;4015;48.888;9.226;2023-02-28T17:55:22;13.43;;;9.47;;
7939;SDS011;4015;48.888;9.226;2023-02-28T17:57:48;11.97;;;9.43;;
7939;SDS011;4015;48.888;9.226;2023-02-28T18:00:14;11.97;;;9.47;;
7939;SDS011;4015;48.888;9.226;2023-02-28T18:02:41;12.17;;;9.47;;
7939;SDS011;4015;48.888;9.226;2023-02-28T18:05:07;14.40;;;10.47;;
7939;SDS011;4015;48.888;9.226;2023-02-28T18:07:33;14.23;;;9.93;;
7939;SDS011;4015;48.888;9.226;2023-02-28T18:09:58;13.43;;;9.50;;